Time;durP1;ratioP1;P1;durP2;ratioP2;P2;SDS_P1;SDS_P2;PMS_P1;PMS_P2;Temp;Humidity;BMP_temperature;BMP_pressure;BME280_temperature;BME280_humidity;BME280_pressure;Samples;Min_cycle;Max_cycle;Signal;HPM_P1;HPM_P2
2024/01/29 00:01:16;;;;;;;33.53;10.10;;;-1.00;99.90;;;-3.18;100.00;102359.84;10507051;27;96625;-84
2024/01/29 00:06:20;;;;;;;20.70;9.00;;;-1.10;99.90;;;-3.22;100.00;102330.47;10506285;27;96604;-84
2024/01/29 00:11:24;;;;;;;19.70;7.83;;;-1.10;99.90;;;-3.17;100.00;102339.03;10489552;27;98105;-84
2024/01/29 00:16:29;;;;;;;19.47;7.33;;;-1.10;99.90;;;-3.17;100.00;102346.00;10490682;27;97746;-85
2024/01/29 00:21:33;;;;;;;27.70;9.10;;;-1.00;99.90;;;-3.20;100.00;102351.22;10515254;27;96703;-85
2024/01/29 00:26:39;;;;;;;21.30;7.03;;;-1.10;99.90;;;-3.25;100.00;102351.31;10505735;27;98457;-84
2024/01/29 00:31:43;;;;;;;19.33;7.37;;;-1.10;99.90;;;-3.30;100.00;102343.63;10487238;27;96709;-84
2024/01/29 00:36:47;;;;;;;15.50;6.67;;;-1.20;99.90;;;-3.31;100.00;102338.41;10505526;27;96563;-85
2024/01/29 00:41:50;;;;;;;18.13;6.67;;;-1.20;99.90;;;-3.31;100.00;102360.06;10487786;27;98112;-84
2024/01/29 00:46:54;;;;;;;18.87;6.43;;;-1.20;99.90;;;-3.39;100.00;102368.91;10506301;27;96610;-84
2024/01/29 00:51:59;;;;;;;15.50;6.27;;;-1.20;99.90;;;-3.43;100.00;102386.28;10489699;27;98312;-84
2024/01/29 00:57:03;;;;;;;16.23;6.30;;;-1.30;99.90;;;-3.46;100.00;102385.50;10488019;27;96624;-84
2024/01/29 01:02:06;;;;;;;14.60;5.87;;;-1.30;99.90;;;-3.49;100.00;102386.38;10500880;27;96627;-84
2024/01/29 01:07:11;;;;;;;15.67;5.13;;;-1.30;99.90;;;-3.46;100.00;102398.50;10505478;27;96545;-84
2024/01/29 01:12:14;;;;;;;19.40;7.13;;;-1.40;99.90;;;-3.47;100.00;102400.22;10505423;27;96562;-84
2024/01/29 01:17:18;;;;;;;15.40;6.10;;;-1.40;99.90;;;-3.46;100.00;102407.13;10504304;27;96501;-85
2024/01/29 01:22:21;;;;;;;11.77;5.17;;;-1.40;99.90;;;-3.50;100.00;102401.13;10503616;27;96866;-84
2024/01/29 01:27:25;;;;;;;12.03;5.40;;;-1.40;99.90;;;-3.47;100.00;102386.38;10500585;27;96584;-84
2024/01/29 01:32:28;;;;;;;17.60;6.60;;;-1.40;99.90;;;-3.47;100.00;102378.59;10508555;27;97494;-84
2024/01/29 01:37:32;;;;;;;17.33;5.83;;;-1.40;99.90;;;-3.43;100.00;102385.41;10496529;27;96615;-84
2024/01/29 01:42:41;;;;;;;14.63;5.00;;;-1.40;99.90;;;-3.47;100.00;102375.97;10469523;27;96475;-84
2024/01/29 01:47:44;;;;;;;15.87;5.23;;;-1.40;99.90;;;-3.51;100.00;102390.75;10470592;27;96512;-84
2024/01/29 01:52:48;;;;;;;15.50;6.33;;;-1.40;99.90;;;-3.60;100.00;102372.69;10503898;27;96650;-84
2024/01/29 01:57:52;;;;;;;27.73;6.43;;;-1.40;99.90;;;-3.62;100.00;102372.72;10518545;27;96454;-84
2024/01/29 02:02:55;;;;;;;11.43;5.53;;;-1.50;99.90;;;-3.64;100.00;102365.84;10499430;27;96694;-84
2024/01/29 02:07:59;;;;;;;14.50;5.50;;;-1.50;99.90;;;-3.66;100.00;102378.84;10503067;27;98314;-84
2024/01/29 02:13:03;;;;;;;15.27;4.47;;;-1.50;99.90;;;-3.71;100.00;102366.84;10486698;27;96479;-84
2024/01/29 02:18:07;;;;;;;11.50;4.20;;;-1.60;99.90;;;-3.73;100.00;102368.56;10501765;27;96605;-84
2024/01/29 02:23:11;;;;;;;14.37;4.50;;;-1.60;99.90;;;-3.72;100.00;102371.16;10495843;27;96577;-85
2024/01/29 02:28:14;;;;;;;10.13;4.50;;;-1.60;99.90;;;-3.73;100.00;102374.63;10504577;27;96775;-84
2024/01/29 02:33:19;;;;;;;17.50;5.10;;;-1.60;99.90;;;-3.73;100.00;102361.63;10510310;27;97234;-84
2024/01/29 02:38:23;;;;;;;12.60;4.73;;;-1.60;99.90;;;-3.71;100.00;102359.03;10510798;27;98345;-85
2024/01/29 02:43:26;;;;;;;9.40;4.40;;;-1.60;99.90;;;-3.68;100.00;102349.44;10510714;27;96582;-84
2024/01/29 02:48:30;;;;;;;10.97;3.90;;;-1.60;99.90;;;-3.68;100.00;102356.38;10511439;27;96556;-85
2024/01/29 02:53:34;;;;;;;12.13;4.83;;;-1.60;99.90;;;-3.71;100.00;102356.44;10517879;27;96597;-84
2024/01/29 02:58:37;;;;;;;12.47;4.80;;;-1.60;99.90;;;-3.77;100.00;102347.00;10507989;27;96865;-85
2024/01/29 03:03:41;;;;;;;9.07;4.77;;;-1.60;99.90;;;-3.81;100.00;102361.75;10507696;27;96582;-84
2024/01/29 03:08:46;;;;;;;8.53;3.77;;;-1.70;99.90;;;-3.83;100.00;102367.88;10497923;27;97077;-84
2024/01/29 03:13:49;;;;;;;16.07;5.60;;;-1.70;99.90;;;-3.90;100.00;102366.22;10507660;27;96950;-84
2024/01/29 03:18:53;;;;;;;15.17;5.47;;;-1.70;99.90;;;-3.93;100.00;102363.69;10499782;27;96493;-84
2024/01/29 03:23:56;;;;;;;16.77;6.03;;;-1.80;99.90;;;-3.88;100.00;102370.53;10490756;27;96712;-84
2024/01/29 03:29:00;;;;;;;22.03;8.50;;;-1.80;99.90;;;-3.89;100.00;102366.22;10508362;27;96472;-84
2024/01/29 03:34:03;;;;;;;23.63;6.93;;;-1.80;99.90;;;-3.88;100.00;102382.66;10491411;27;97452;-84
2024/01/29 03:39:07;;;;;;;21.67;8.37;;;-1.80;99.90;;;-3.93;100.00;102372.34;10508663;27;96445;-84
2024/01/29 03:44:10;;;;;;;18.37;7.53;;;-1.80;99.90;;;-3.97;100.00;102375.00;10508139;27;96657;-84
2024/01/29 03:49:13;;;;;;;32.03;9.73;;;-1.90;99.90;;;-4.08;100.00;102367.34;10507505;27;96609;-84
2024/01/29 03:54:17;;;;;;;17.73;7.17;;;-1.90;99.90;;;-4.12;100.00;102368.28;10508380;27;96523;-84
2024/01/29 03:59:20;;;;;;;17.33;7.00;;;-2.00;99.90;;;-4.20;100.00;102355.41;10509208;27;96428;-84
2024/01/29 04:04:23;;;;;;;37.40;13.27;;;-2.10;99.90;;;-4.24;100.00;102363.28;10507105;27;96704;-84
2024/01/29 04:09:27;;;;;;;19.03;6.33;;;-2.10;99.90;;;-4.26;100.00;102357.22;10506791;27;96627;-84
2024/01/29 04:14:31;;;;;;;13.10;5.13;;;-2.10;99.90;;;-4.31;100.00;102378.06;10507058;27;96571;-84
2024/01/29 04:19:34;;;;;;;10.73;4.53;;;-2.20;99.90;;;-4.35;100.00;102366.00;10502846;27;98228;-84
2024/01/29 04:24:38;;;;;;;13.47;5.63;;;-2.20;99.90;;;-4.31;100.00;102362.50;10489440;27;96495;-84
2024/01/29 04:29:41;;;;;;;15.13;6.37;;;-2.20;99.90;;;-4.25;100.00;102365.00;10507181;27;96539;-84
2024/01/29 04:34:45;;;;;;;39.73;11.17;;;-2.20;99.90;;;-4.23;100.00;102357.19;10506285;27;96602;-84
2024/01/29 04:39:48;;;;;;;17.47;8.73;;;-2.10;99.90;;;-4.25;100.00;102365.00;10489932;27;96951;-84
2024/01/29 04:44:51;;;;;;;22.13;7.93;;;-2.10;99.90;;;-4.25;100.00;102370.19;10517734;27;96873;-84
2024/01/29 04:49:55;;;;;;;27.83;10.60;;;-2.20;99.90;;;-4.33;100.00;102372.03;10486683;27;96585;-86
2024/01/29 04:54:59;;;;;;;18.97;7.33;;;-2.20;99.90;;;-4.35;100.00;102400.59;10505390;27;97928;-85
2024/01/29 05:00:08;;;;;;;19.47;6.70;;;-2.20;99.90;;;-4.37;100.00;102393.72;10473665;27;96611;-85
2024/01/29 05:05:11;;;;;;;15.47;6.30;;;-2.30;99.90;;;-4.35;100.00;102382.44;10505423;27;96677;-85
2024/01/29 05:10:15;;;;;;;16.23;7.20;;;-2.20;99.90;;;-4.32;100.00;102378.94;10505379;27;96660;-86
2024/01/29 05:15:19;;;;;;;15.23;5.93;;;-2.20;99.90;;;-4.31;100.00;102391.06;10508043;27;96587;-86
2024/01/29 05:20:23;;;;;;;11.50;4.97;;;-2.20;99.90;;;-4.36;100.00;102403.22;10505787;27;96452;-86
2024/01/29 05:25:27;;;;;;;16.10;5.63;;;-2.20;99.90;;;-4.39;100.00;102406.69;10489843;27;96789;-87
2024/01/29 05:30:30;;;;;;;12.50;5.30;;;-2.30;99.90;;;-4.42;100.00;102398.97;10473676;27;96748;-87
2024/01/29 05:35:33;;;;;;;15.20;6.07;;;-2.30;99.90;;;-4.44;100.00;102384.28;10490067;27;97026;-87
2024/01/29 05:40:37;;;;;;;15.03;5.80;;;-2.30;99.90;;;-4.46;100.00;102371.31;10503878;27;96671;-87
2024/01/29 05:45:40;;;;;;;29.77;8.57;;;-2.30;99.90;;;-4.48;100.00;102377.41;10504914;27;96604;-87
2024/01/29 05:50:43;;;;;;;28.10;9.87;;;-2.30;99.90;;;-4.55;100.00;102380.97;10504312;27;96843;-88
2024/01/29 05:55:47;;;;;;;18.93;7.57;;;-2.40;99.90;;;-4.58;100.00;102377.50;10497946;27;96702;-88
2024/01/29 06:00:51;;;;;;;25.50;10.90;;;-2.40;99.90;;;-4.64;100.00;102381.91;10504078;27;96559;-89
2024/01/29 06:05:55;;;;;;;18.03;6.37;;;-2.40;99.90;;;-4.66;100.00;102378.50;10514854;27;96673;-88
2024/01/29 06:10:59;;;;;;;16.97;7.23;;;-2.50;99.90;;;-4.71;100.00;102375.94;10497944;27;97384;-87
2024/01/29 06:16:03;;;;;;;19.53;7.20;;;-2.50;99.90;;;-4.70;100.00;102384.59;10520347;27;96512;-88
2024/01/29 06:21:07;;;;;;;18.13;7.73;;;-2.50;99.90;;;-4.68;100.00;102391.50;10514286;27;96729;-88
2024/01/29 06:26:10;;;;;;;25.47;8.93;;;-2.50;99.90;;;-4.65;100.00;102400.97;10501949;27;96595;-87
2024/01/29 06:31:14;;;;;;;33.13;11.67;;;-2.50;99.90;;;-4.59;100.00;102406.94;10492319;27;96451;-87
2024/01/29 06:36:17;;;;;;;48.07;15.97;;;-2.50;99.90;;;-4.52;100.00;102404.28;10500489;27;97614;-86
2024/01/29 06:41:26;;;;;;;40.97;13.00;;;-2.50;99.90;;;-4.49;100.00;102396.47;10552664;27;96482;-86
2024/01/29 06:46:29;;;;;;;55.90;17.43;;;-2.40;99.90;;;-4.44;100.00;102405.03;10514415;27;96914;-86
2024/01/29 06:51:33;;;;;;;54.40;17.37;;;-2.30;99.90;;;-4.42;100.00;102413.69;10512949;27;96685;-86
2024/01/29 06:56:37;;;;;;;60.20;17.57;;;-2.30;99.90;;;-4.35;100.00;102410.97;10515528;27;96786;-86
2024/01/29 07:01:40;;;;;;;41.90;16.13;;;-2.20;99.90;;;-4.20;100.00;102427.22;10523138;27;97421;-85
2024/01/29 07:06:44;;;;;;;80.83;27.23;;;-2.20;99.90;;;-4.05;100.00;102416.66;10512411;27;98269;-86
2024/01/29 07:11:47;;;;;;;60.40;22.67;;;-2.00;99.90;;;-3.68;100.00;102427.38;10488598;27;97943;-86
2024/01/29 07:16:51;;;;;;;43.53;18.43;;;-1.80;99.90;;;-2.50;100.00;102428.00;10500662;27;96696;-86
2024/01/29 07:21:57;;;;;;;30.40;12.40;;;-1.50;99.90;;;-1.22;100.00;102429.50;10489035;27;97829;-86
2024/01/29 07:27:01;;;;;;;18.47;8.27;;;-0.90;99.90;;;-0.31;100.00;102428.78;10519807;27;98203;-86
2024/01/29 07:32:05;;;;;;;15.83;6.97;;;-0.40;99.90;;;0.32;100.00;102429.56;10527315;27;97197;-86
2024/01/29 07:37:11;;;;;;;13.73;6.30;;;0.20;99.90;;;0.87;100.00;102433.88;10479542;27;96813;-86
2024/01/29 07:42:14;;;;;;;12.73;6.93;;;0.70;99.90;;;1.37;100.00;102422.56;10513930;27;96520;-87
2024/01/29 07:47:18;;;;;;;19.03;8.50;;;1.20;99.90;;;1.91;100.00;102417.06;10504976;27;97390;-85
2024/01/29 07:52:22;;;;;;;15.30;6.87;;;1.60;99.90;;;2.37;100.00;102428.41;10516492;27;96521;-86
2024/01/29 07:57:26;;;;;;;13.13;7.47;;;2.00;99.90;;;2.91;100.00;102416.56;10511954;27;97118;-87
2024/01/29 08:02:30;;;;;;;15.50;7.83;;;2.30;99.90;;;2.93;100.00;102407.69;10508519;27;97226;-87
2024/01/29 08:07:33;;;;;;;14.97;8.23;;;2.60;99.90;;;3.18;100.00;102397.00;10513235;27;97794;-87
2024/01/29 08:12:37;;;;;;;15.70;8.40;;;2.80;99.90;;;3.58;100.00;102383.88;10501398;27;98104;-86
2024/01/29 08:17:41;;;;;;;17.40;8.13;;;3.20;99.90;;;4.05;98.55;102386.06;10500654;27;96603;-86
2024/01/29 08:22:44;;;;;;;16.43;9.10;;;3.70;99.90;;;4.45;95.65;102385.88;10493827;27;96864;-86
2024/01/29 08:27:48;;;;;;;18.37;9.07;;;4.20;99.90;;;4.86;91.23;102382.97;10502448;27;96813;-86
2024/01/29 08:32:52;;;;;;;16.23;9.07;;;4.60;99.90;;;5.13;85.87;102390.38;10513435;27;96411;-86
2024/01/29 08:37:55;;;;;;;15.20;8.10;;;5.10;99.90;;;5.43;83.81;102383.50;10500290;27;96519;-86
2024/01/29 08:42:59;;;;;;;36.50;20.40;;;5.50;99.90;;;5.83;81.23;102387.50;10516673;27;96589;-86
2024/01/29 08:48:03;;;;;;;24.03;12.30;;;6.00;99.90;;;6.16;77.81;102394.50;10487721;27;96461;-86
2024/01/29 08:53:07;;;;;;;24.40;14.13;;;6.40;99.90;;;6.34;76.95;102400.53;10491419;27;96981;-86
2024/01/29 08:58:10;;;;;;;24.63;13.50;;;6.80;99.90;;;6.48;74.08;102397.09;10527578;27;97347;-84
2024/01/29 09:03:14;;;;;;;24.33;12.47;;;7.10;99.90;;;6.68;69.93;102402.13;10514591;27;97020;-84
2024/01/29 09:08:17;;;;;;;18.77;10.70;;;7.30;99.90;;;6.87;68.89;102408.03;10493483;27;97142;-84
2024/01/29 09:13:22;;;;;;;14.87;9.03;;;7.60;99.90;;;7.03;69.13;102400.06;10496033;27;98095;-84
2024/01/29 09:18:25;;;;;;;15.40;7.80;;;7.80;99.90;;;7.21;67.49;102387.53;10505739;27;96809;-84
2024/01/29 09:23:32;;;;;;;17.73;9.10;;;8.20;99.90;;;7.44;66.35;102396.72;10502834;27;96515;-83
2024/01/29 09:28:35;;;;;;;17.50;8.13;;;8.50;99.90;;;7.58;64.63;102396.69;10499604;27;97954;-84
2024/01/29 09:33:38;;;;;;;15.63;7.80;;;8.80;99.90;;;7.76;64.63;102394.69;10493603;27;98372;-83
2024/01/29 09:38:42;;;;;;;17.77;9.13;;;9.10;99.90;;;7.87;61.72;102394.03;10495519;27;96530;-84
2024/01/29 09:43:47;;;;;;;11.45;6.10;;;9.30;99.90;;;8.39;62.83;102391.53;10525679;27;96614;-85
2024/01/29 09:48:50;;;;;;;11.57;7.28;;;9.80;99.90;;;8.78;59.98;102396.03;10492945;27;96603;-85
2024/01/29 09:53:55;;;;;;;13.80;7.10;;;10.20;99.90;;;9.12;57.74;102375.19;10507275;27;98479;-84
2024/01/29 09:58:58;;;;;;;16.83;9.02;;;10.50;99.90;;;9.43;57.75;102375.72;10506786;27;97660;-85
2024/01/29 10:04:02;;;;;;;15.70;8.10;;;10.70;99.80;;;9.69;55.34;102369.41;10497135;27;96665;-86
2024/01/29 10:09:05;;;;;;;15.23;7.65;;;10.90;98.60;;;9.29;55.03;102368.69;10511571;27;96522;-85
2024/01/29 10:14:09;;;;;;;14.07;6.83;;;10.40;96.90;;;8.44;55.60;102372.72;10513546;27;96501;-84
2024/01/29 10:19:14;;;;;;;13.80;6.23;;;9.80;95.70;;;7.53;57.10;102380.25;10515267;27;96482;-84
2024/01/29 10:24:18;;;;;;;12.23;6.07;;;9.10;94.80;;;6.83;59.15;102379.22;10521365;27;96598;-84
2024/01/29 10:29:22;;;;;;;10.30;5.43;;;8.50;94.80;;;6.90;58.97;102384.06;10546551;27;96795;-84
2024/01/29 10:34:26;;;;;;;12.90;5.77;;;8.70;95.30;;;7.73;60.98;102379.00;10525051;27;98291;-85
2024/01/29 10:39:31;;;;;;;12.23;6.28;;;9.40;95.90;;;8.84;58.74;102361.16;10512007;27;96701;-85
2024/01/29 10:44:41;;;;;;;11.40;5.90;;;10.40;95.00;;;9.54;55.40;102344.81;10520175;27;96524;-85
2024/01/29 10:49:45;;;;;;;12.88;6.10;;;11.20;94.20;;;10.16;54.60;102335.91;10508444;27;98793;-85
2024/01/29 10:54:51;;;;;;;9.95;5.80;;;11.80;94.10;;;10.66;52.29;102324.16;10487996;27;96849;-85
2024/01/29 10:59:56;;;;;;;11.13;7.30;;;12.40;92.10;;;11.01;51.21;102317.09;10517767;27;96536;-85
2024/01/29 11:05:01;;;;;;;14.95;9.65;;;12.70;90.70;;;11.19;49.50;102310.34;10507444;27;96546;-84
2024/01/29 11:10:18;;;;;;;11.30;5.35;;;12.80;87.00;;;11.04;49.29;102301.75;10486844;27;96561;-85
2024/01/29 11:15:22;;;;;;;11.23;5.45;;;12.70;85.60;;;10.57;49.23;102300.94;10491519;27;96570;-85
2024/01/29 11:20:26;;;;;;;9.95;5.45;;;12.30;83.80;;;10.38;49.51;102288.22;10482617;27;96598;-85
2024/01/29 11:25:29;;;;;;;10.75;6.00;;;12.20;84.00;;;10.32;48.98;102287.81;10504787;27;96778;-85
2024/01/29 11:30:33;;;;;;;9.40;5.30;;;12.20;83.50;;;9.97;48.70;102270.00;10523113;27;96633;-85
2024/01/29 11:35:36;;;;;;;12.57;5.90;;;11.80;80.50;;;9.51;48.99;102276.00;10543988;27;96931;-85
2024/01/29 11:40:50;;;;;;;13.80;6.30;;;11.30;79.50;;;8.85;50.33;102274.50;10499446;27;96679;-84
2024/01/29 11:45:54;;;;;;;9.73;5.33;;;10.50;78.30;;;8.22;51.79;102262.00;10486442;27;96868;-84
2024/01/29 11:50:58;;;;;;;11.50;5.90;;;9.90;79.90;;;7.65;53.35;102260.41;10486857;27;96712;-84
2024/01/29 11:56:02;;;;;;;13.10;6.07;;;9.30;80.40;;;7.18;54.33;102258.13;10524514;27;97906;-84
2024/01/29 12:01:08;;;;;;;10.53;5.83;;;8.80;81.10;;;6.87;55.48;102269.75;10494843;27;97428;-85
2024/01/29 12:06:11;;;;;;;13.33;5.93;;;8.50;81.90;;;6.63;56.62;102258.88;10497138;27;96604;-85
2024/01/29 12:11:16;;;;;;;8.50;4.30;;;8.20;82.70;;;6.46;57.49;102267.78;10523262;27;96593;-85
2024/01/29 12:16:20;;;;;;;11.10;4.57;;;8.00;84.20;;;6.29;57.86;102270.56;10526251;27;96617;-85
2024/01/29 12:21:26;;;;;;;9.43;4.03;;;7.90;83.60;;;6.23;58.67;102277.03;10518047;27;96857;-85
2024/01/29 12:26:30;;;;;;;8.20;4.37;;;7.80;84.60;;;6.12;59.28;102264.50;10508192;27;98454;-85
2024/01/29 12:31:38;;;;;;;11.40;5.30;;;7.70;84.90;;;6.06;59.86;102264.00;10488957;27;96570;-85
2024/01/29 12:36:41;;;;;;;7.23;3.40;;;7.70;85.10;;;6.06;60.00;102272.78;10524218;27;96583;-85
2024/01/29 12:41:45;;;;;;;10.93;4.47;;;7.60;86.60;;;6.02;59.91;102263.31;10536365;27;96387;-85
2024/01/29 12:46:56;;;;;;;7.20;4.17;;;7.60;86.20;;;5.98;60.33;102261.78;10485591;27;96536;-85
2024/01/29 12:52:00;;;;;;;8.23;4.10;;;7.60;86.40;;;5.96;60.13;102261.03;10541047;27;97505;-85
2024/01/29 12:57:08;;;;;;;12.27;5.20;;;7.50;86.20;;;5.92;60.76;102253.38;10519572;27;96721;-85
2024/01/29 13:02:12;;;;;;;10.30;4.27;;;7.50;86.70;;;5.89;60.80;102255.22;10484943;27;97776;-85
2024/01/29 13:07:15;;;;;;;9.10;4.77;;;7.50;86.50;;;5.88;60.61;102260.59;10503898;27;96689;-86
2024/01/29 13:12:19;;;;;;;14.77;5.33;;;7.50;86.60;;;5.83;60.72;102255.56;10510334;27;96736;-85
2024/01/29 13:17:22;;;;;;;9.87;4.30;;;7.40;86.60;;;5.82;61.06;102258.31;10529532;27;96572;-85
2024/01/29 13:22:26;;;;;;;8.97;4.07;;;7.40;87.00;;;5.77;61.29;102260.34;10500026;27;96519;-85
2024/01/29 13:27:30;;;;;;;10.83;4.40;;;7.40;87.10;;;5.69;61.31;102246.72;10531723;27;96604;-85
2024/01/29 13:32:33;;;;;;;11.37;5.03;;;7.30;87.50;;;5.66;61.60;102246.91;10483541;27;97503;-86
2024/01/29 13:37:38;;;;;;;11.50;5.33;;;7.30;87.40;;;5.61;62.01;102240.09;10522793;27;96405;-85
2024/01/29 13:42:42;;;;;;;9.23;4.93;;;7.30;87.50;;;5.62;62.28;102241.78;10486542;27;96839;-84
2024/01/29 13:47:46;;;;;;;14.67;5.93;;;7.30;87.70;;;5.57;62.52;102232.44;10539074;27;96625;-87
2024/01/29 13:52:50;;;;;;;14.07;6.03;;;7.20;87.90;;;5.58;62.44;102244.72;10514013;27;96531;-85
2024/01/29 13:57:53;;;;;;;14.63;6.70;;;7.20;88.00;;;5.57;62.61;102238.56;10498160;27;97139;-85
2024/01/29 14:02:57;;;;;;;10.60;5.17;;;7.20;88.10;;;5.52;62.78;102245.06;10529029;27;96364;-85
2024/01/29 14:08:00;;;;;;;9.47;5.33;;;7.20;88.30;;;5.49;63.09;102240.78;10518241;27;96870;-85
2024/01/29 14:13:04;;;;;;;13.07;5.47;;;7.10;88.30;;;5.44;63.12;102248.09;10503119;27;96511;-85
2024/01/29 14:18:07;;;;;;;14.37;5.43;;;7.10;88.50;;;5.40;63.29;102249.22;10499151;27;96842;-85
2024/01/29 14:23:12;;;;;;;11.97;5.73;;;7.10;88.60;;;5.36;63.41;102250.31;10490998;27;97112;-85
2024/01/29 14:28:17;;;;;;;11.20;6.37;;;7.00;88.50;;;5.29;63.55;102248.94;10508157;27;96508;-85
2024/01/29 14:33:20;;;;;;;15.77;6.73;;;7.00;88.50;;;5.20;63.77;102252.91;10514348;27;97309;-85
2024/01/29 14:38:29;;;;;;;19.70;7.00;;;6.90;88.90;;;5.10;64.00;102252.59;10521452;27;96490;-84
2024/01/29 14:43:33;;;;;;;14.83;5.83;;;6.80;88.80;;;5.00;64.17;102253.16;10533715;27;97564;-85
2024/01/29 14:48:36;;;;;;;13.57;5.70;;;6.70;88.80;;;4.93;64.46;102252.63;10501686;27;96658;-84
2024/01/29 14:53:40;;;;;;;19.13;7.40;;;6.70;88.90;;;4.77;64.87;102254.34;10523175;27;97932;-85
2024/01/29 14:58:47;;;;;;;21.20;8.33;;;6.50;89.00;;;4.55;65.31;102258.09;10514243;27;97431;-84
2024/01/29 15:03:53;;;;;;;32.60;9.80;;;6.40;89.10;;;4.32;66.20;102261.06;10506497;27;97174;-84
2024/01/29 15:08:56;;;;;;;34.83;12.27;;;6.20;89.50;;;4.07;66.72;102271.09;10524642;27;96587;-84
2024/01/29 15:14:00;;;;;;;44.73;14.80;;;5.90;89.60;;;3.80;67.30;102271.50;10526516;27;96545;-84
2024/01/29 15:19:04;;;;;;;64.57;20.10;;;5.70;89.90;;;3.48;68.69;102268.63;10504250;27;96750;-85
2024/01/29 15:24:08;;;;;;;46.33;16.13;;;5.40;90.10;;;3.16;69.32;102272.72;10487566;27;96681;-84
2024/01/29 15:29:11;;;;;;;33.77;11.10;;;5.20;90.30;;;2.88;71.36;102281.00;10505802;27;96535;-84
2024/01/29 15:34:17;;;;;;;27.20;9.23;;;4.80;90.50;;;2.57;72.66;102283.22;10515185;27;96735;-85
2024/01/29 15:39:21;;;;;;;18.40;7.80;;;4.50;90.70;;;2.30;73.72;102285.25;10503728;27;96893;-84
2024/01/29 15:44:24;;;;;;;14.43;6.50;;;4.30;91.00;;;2.07;74.28;102291.44;10494988;27;96634;-84
2024/01/29 15:49:29;;;;;;;16.67;7.80;;;4.00;91.20;;;1.89;74.98;102300.91;10522850;27;96444;-84
2024/01/29 15:54:34;;;;;;;18.93;9.63;;;3.90;91.50;;;1.72;75.83;102303.31;10519019;27;96589;-85
2024/01/29 15:59:39;;;;;;;14.60;6.73;;;3.70;91.70;;;1.60;77.13;102315.13;10495498;27;98033;-85
2024/01/29 16:04:43;;;;;;;16.00;7.13;;;3.60;92.00;;;1.46;77.97;102312.19;10490579;27;96578;-86
2024/01/29 16:09:46;;;;;;;19.90;8.47;;;3.50;92.20;;;1.34;79.49;102324.84;10499768;27;97981;-86
2024/01/29 16:14:50;;;;;;;23.53;9.23;;;3.40;92.60;;;1.22;80.29;102327.06;10493141;27;97439;-85
2024/01/29 16:19:53;;;;;;;22.17;9.03;;;3.20;92.70;;;1.09;80.96;102336.28;10490569;27;98192;-85
2024/01/29 16:24:57;;;;;;;16.13;6.40;;;3.10;92.80;;;0.91;82.04;102311.59;10484980;27;96599;-85
2024/01/29 16:30:01;;;;;;;14.63;6.37;;;3.00;93.00;;;0.86;83.53;102324.84;10534419;27;96638;-84
2024/01/29 16:35:05;;;;;;;18.67;8.83;;;2.90;93.50;;;0.77;84.80;102323.38;10500731;27;97152;-85
2024/01/29 16:40:09;;;;;;;20.33;9.00;;;2.80;93.70;;;0.72;85.77;102341.03;10508684;27;98665;-85
2024/01/29 16:45:13;;;;;;;23.03;10.40;;;2.70;94.00;;;0.68;86.43;102334.19;10497974;27;98017;-85
2024/01/29 16:50:17;;;;;;;19.17;8.40;;;2.60;94.00;;;0.63;86.78;102338.72;10509682;27;96666;-85
2024/01/29 16:55:20;;;;;;;22.00;9.53;;;2.60;94.00;;;0.60;88.96;102338.81;10493430;27;98454;-84
2024/01/29 17:00:25;;;;;;;23.50;9.93;;;2.50;94.20;;;0.50;88.55;102353.09;10521231;27;97492;-84
2024/01/29 17:05:28;;;;;;;16.23;7.50;;;2.50;94.40;;;0.37;88.11;102355.28;10498800;27;96561;-84
2024/01/29 17:10:33;;;;;;;22.27;7.93;;;2.40;94.40;;;0.19;87.82;102350.63;10504298;27;96721;-85
2024/01/29 17:15:37;;;;;;;17.13;7.10;;;2.20;94.40;;;-0.01;87.91;102359.09;10498750;27;96553;-84
2024/01/29 17:20:41;;;;;;;17.27;6.73;;;2.00;94.50;;;-0.23;89.34;102364.13;10501075;27;96575;-84
2024/01/29 17:25:44;;;;;;;15.13;5.60;;;1.80;94.90;;;-0.44;89.47;102365.59;10504604;27;98351;-84
2024/01/29 17:30:48;;;;;;;14.23;6.07;;;1.60;94.80;;;-0.62;89.65;102379.19;10509615;27;96628;-84
2024/01/29 17:35:51;;;;;;;20.00;8.33;;;1.50;95.00;;;-0.81;90.21;102390.13;10483640;27;96601;-84
2024/01/29 17:40:55;;;;;;;44.43;17.90;;;1.30;94.80;;;-0.95;92.24;102383.59;10500016;27;98073;-84
2024/01/29 17:46:00;;;;;;;49.90;19.07;;;1.10;95.40;;;-1.12;93.27;102384.88;10486777;27;96607;-85
2024/01/29 17:51:04;;;;;;;56.93;20.80;;;1.00;96.00;;;-1.28;94.07;102380.06;10486964;27;96677;-85
2024/01/29 17:56:09;;;;;;;53.97;23.43;;;0.80;96.30;;;-1.39;95.71;102377.72;10517563;27;97718;-86
2024/01/29 18:01:12;;;;;;;92.43;31.80;;;0.70;96.70;;;-1.47;98.07;102392.72;10495582;27;96564;-84
2024/01/29 18:06:17;;;;;;;55.73;22.20;;;0.60;97.10;;;-1.60;98.51;102389.56;10523928;27;96584;-85
2024/01/29 18:11:20;;;;;;;53.97;20.30;;;0.50;97.10;;;-1.66;99.30;102395.78;10507190;27;98337;-85
2024/01/29 18:16:24;;;;;;;51.50;20.10;;;0.40;97.60;;;-1.74;99.86;102391.59;10496374;27;96571;-84
2024/01/29 18:21:28;;;;;;;49.67;19.03;;;0.40;97.70;;;-1.81;99.97;102397.84;10528470;27;98066;-85
2024/01/29 18:26:36;;;;;;;66.47;22.87;;;0.30;97.60;;;-1.93;100.00;102401.59;10525828;27;98101;-85
2024/01/29 18:31:39;;;;;;;53.30;20.93;;;0.20;98.00;;;-1.98;100.00;102409.53;10489119;27;98682;-85
2024/01/29 18:36:43;;;;;;;49.93;18.37;;;0.10;98.50;;;-2.05;100.00;102397.50;10502525;27;96717;-86
2024/01/29 18:41:47;;;;;;;45.47;16.37;;;0.10;99.10;;;-2.07;100.00;102409.72;10490606;27;98578;-85
2024/01/29 18:46:51;;;;;;;44.50;15.43;;;0.00;99.90;;;-2.09;100.00;102406.31;10507338;27;96617;-85
2024/01/29 18:52:03;;;;;;;43.00;14.73;;;0.00;99.90;;;-2.14;100.00;102402.09;10519354;27;96879;-85
2024/01/29 18:57:07;;;;;;;37.60;14.33;;;0.00;99.90;;;-2.25;100.00;102400.56;10503835;27;96717;-86
2024/01/29 19:02:10;;;;;;;40.27;13.63;;;-0.10;99.90;;;-2.31;100.00;102410.25;10504428;27;98087;-86
2024/01/29 19:07:15;;;;;;;28.43;12.37;;;-0.20;99.90;;;-2.37;100.00;102420.78;10515819;27;96677;-86
2024/01/29 19:12:19;;;;;;;26.40;11.17;;;-0.20;99.90;;;-2.39;100.00;102428.63;10518600;27;96586;-86
2024/01/29 19:17:23;;;;;;;25.87;10.27;;;-0.30;99.90;;;-2.43;100.00;102430.44;10497182;27;98191;-87
2024/01/29 19:22:26;;;;;;;23.57;10.10;;;-0.30;99.90;;;-2.47;100.00;102439.19;10485427;27;98492;-83
2024/01/29 19:27:30;;;;;;;31.93;13.23;;;-0.40;99.90;;;-2.53;100.00;102441.91;10511445;27;97283;-83
2024/01/29 19:32:34;;;;;;;44.43;14.87;;;-0.40;99.90;;;-2.60;100.00;102449.88;10501897;27;96721;-83
2024/01/29 19:37:38;;;;;;;33.70;11.60;;;-0.50;99.90;;;-2.68;100.00;102447.41;10501990;27;96522;-83
2024/01/29 19:42:42;;;;;;;40.43;14.07;;;-0.60;99.90;;;-2.66;100.00;102456.03;10496921;27;96984;-83
2024/01/29 19:47:46;;;;;;;44.70;15.10;;;-0.50;99.90;;;-2.68;100.00;102450.03;10475275;27;97049;-83
2024/01/29 19:52:50;;;;;;;45.97;14.07;;;-0.60;99.90;;;-2.69;100.00;102456.13;10502881;27;96691;-83
2024/01/29 19:57:53;;;;;;;30.03;13.03;;;-0.60;99.90;;;-2.70;100.00;102459.56;10509524;27;97043;-83
2024/01/29 20:02:59;;;;;;;29.60;11.20;;;-0.60;99.90;;;-2.74;100.00;102463.16;10489300;27;96666;-83
2024/01/29 20:08:03;;;;;;;32.07;12.00;;;-0.60;99.90;;;-2.80;100.00;102458.06;10494998;27;98377;-84
2024/01/29 20:13:06;;;;;;;59.37;16.87;;;-0.60;99.90;;;-2.80;100.00;102465.84;10491436;27;97467;-83
2024/01/29 20:18:11;;;;;;;43.50;13.50;;;-0.70;99.90;;;-2.88;100.00;102455.56;10500715;27;96685;-83
2024/01/29 20:23:15;;;;;;;31.97;10.43;;;-0.80;99.90;;;-2.89;100.00;102459.06;10504065;27;98219;-84
2024/01/29 20:28:18;;;;;;;41.80;12.33;;;-0.80;99.90;;;-2.91;100.00;102452.16;10488430;27;96524;-83
2024/01/29 20:33:22;;;;;;;35.57;10.17;;;-0.80;99.90;;;-2.91;100.00;102455.63;10490434;27;96722;-83
2024/01/29 20:38:25;;;;;;;29.50;11.20;;;-0.80;99.90;;;-3.00;100.00;102467.06;10491985;27;96538;-83